Time;durP1;ratioP1;P1;durP2;ratioP2;P2;SDS_P1;SDS_P2;PMS_P1;PMS_P2;Temp;Humidity;BMP_temperature;BMP_pressure;BME280_temperature;BME280_humidity;BME280_pressure;Samples;Min_cycle;Max_cycle;Signal;HPM_P1;HPM_P2
2023/07/14 00:02:30;;;;;;;2.40;1.70;;;;;;;19.63;60.34;97983.78;6193616;28;20320;-39
2023/07/14 00:05:38;;;;;;;3.97;1.70;;;;;;;19.58;60.78;97979.22;6193260;28;20608;-39
2023/07/14 00:08:40;;;;;;;4.20;1.90;;;;;;;19.56;60.66;97989.53;6192358;28;20706;-39
2023/07/14 00:11:42;;;;;;;2.67;1.70;;;;;;;19.32;63.49;97970.69;6194445;28;21082;-39
2023/07/14 00:14:45;;;;;;;2.23;1.50;;;;;;;19.31;63.70;97990.69;6193723;28;20737;-39
2023/07/14 00:17:51;;;;;;;2.73;1.57;;;;;;;19.26;62.44;97977.22;6191636;28;20252;-39
2023/07/14 00:20:56;;;;;;;2.90;1.77;;;;;;;19.13;62.69;97991.47;6197626;28;20262;-39
2023/07/14 00:24:00;;;;;;;1.83;1.60;;;;;;;19.08;62.49;97990.41;6181021;28;20217;-39
2023/07/14 00:27:02;;;;;;;1.63;1.30;;;;;;;19.13;62.58;97989.56;6195205;28;20240;-39
2023/07/14 00:30:18;;;;;;;1.53;1.43;;;;;;;19.18;61.57;97997.59;6195537;28;20304;-39
2023/07/14 00:33:21;;;;;;;1.73;1.37;;;;;;;19.03;62.31;97981.59;6179083;28;20247;-39
2023/07/14 00:36:24;;;;;;;1.80;1.40;;;;;;;19.05;62.85;97992.88;6192392;28;20334;-39
2023/07/14 00:39:26;;;;;;;2.97;1.60;;;;;;;18.95;63.72;97993.81;6195616;28;20762;-38
2023/07/14 00:42:28;;;;;;;3.57;1.53;;;;;;;18.79;64.42;98003.19;6174990;28;20332;-39
2023/07/14 00:45:32;;;;;;;1.90;1.60;;;;;;;18.62;65.40;97997.41;6190764;28;20738;-39
2023/07/14 00:48:35;;;;;;;1.50;1.40;;;;;;;18.71;63.55;97998.41;6177433;28;20228;-39
2023/07/14 00:51:38;;;;;;;1.60;1.50;;;;;;;18.76;63.37;97996.47;6190859;28;20237;-38
2023/07/14 00:54:46;;;;;;;2.47;1.83;;;;;;;18.66;67.03;97995.75;6174857;28;20694;-39
2023/07/14 00:57:51;;;;;;;1.67;1.57;;;;;;;18.58;65.81;97997.19;6179486;28;20277;-39
2023/07/14 01:01:10;;;;;;;1.67;1.40;;;;;;;18.50;63.96;98004.00;6190975;28;20245;-39
2023/07/14 01:04:15;;;;;;;3.30;1.40;;;;;;;18.50;66.11;97995.91;6172136;28;20241;-40
2023/07/14 01:07:23;;;;;;;5.27;1.47;;;;;;;18.28;67.27;97987.50;6197993;28;20366;-39
2023/07/14 01:10:28;;;;;;;3.37;1.63;;;;;;;18.28;67.93;98001.78;6174119;28;20599;-39
2023/07/14 01:13:30;;;;;;;2.57;1.60;;;;;;;18.14;67.89;98000.03;6174962;28;20233;-38
2023/07/14 01:16:37;;;;;;;2.93;1.53;;;;;;;18.07;67.32;97986.84;6192922;28;20388;-39
2023/07/14 01:19:49;;;;;;;2.13;1.67;;;;;;;18.10;67.59;98007.06;6191148;28;20296;-39
2023/07/14 01:23:21;;;;;;;4.50;1.97;;;;;;;18.13;64.48;98001.94;6191089;28;20703;-39
2023/07/14 01:26:36;;;;;;;2.53;1.33;;;;;;;18.13;65.71;97999.22;6181309;28;20228;-39
2023/07/14 01:29:43;;;;;;;3.30;1.60;;;;;;;18.01;67.51;98004.16;6193526;28;20807;-39
2023/07/14 01:32:48;;;;;;;3.43;1.40;;;;;;;17.85;69.01;98000.78;6189448;28;20611;-39
2023/07/14 01:35:59;;;;;;;2.37;1.50;;;;;;;17.67;69.83;98007.59;6176520;28;20241;-39
2023/07/14 01:39:01;;;;;;;1.70;1.60;;;;;;;17.54;69.61;97984.00;6192615;28;20224;-40
2023/07/14 01:42:03;;;;;;;2.40;1.53;;;;;;;17.62;69.99;97998.75;6188045;28;20221;-39
2023/07/14 01:45:12;;;;;;;3.60;1.40;;;;;;;17.57;70.40;98004.19;6189557;28;20217;-38
2023/07/14 01:48:19;;;;;;;2.30;1.40;;;;;;;17.61;66.63;97997.94;6190754;28;20224;-39
2023/07/14 01:51:21;;;;;;;3.30;1.80;;;;;;;17.81;66.11;98007.81;6190698;28;20239;-39
2023/07/14 01:54:35;;;;;;;2.77;1.77;;;;;;;17.71;68.02;97992.50;6172963;28;20236;-39
2023/07/14 01:57:40;;;;;;;2.23;1.60;;;;;;;17.70;69.47;98011.66;6190434;28;20229;-39
2023/07/14 02:00:46;;;;;;;2.83;1.67;;;;;;;17.85;67.73;98013.47;6176973;28;20606;-39
2023/07/14 02:03:51;;;;;;;1.47;1.33;;;;;;;17.72;65.63;97988.72;6171954;28;20241;-39
2023/07/14 02:06:57;;;;;;;2.00;1.57;;;;;;;17.97;67.07;98017.41;6173744;28;20271;-39
2023/07/14 02:10:01;;;;;;;5.00;1.90;;;;;;;17.91;66.26;98032.00;6195040;28;20237;-39
2023/07/14 02:13:05;;;;;;;1.90;1.70;;;;;;;17.90;68.03;98026.91;6197989;28;20243;-38
2023/07/14 02:16:12;;;;;;;2.60;1.43;;;;;;;17.80;68.06;98030.47;6199200;28;20268;-39
2023/07/14 02:19:24;;;;;;;2.10;1.67;;;;;;;17.72;68.46;98036.41;6194592;28;20247;-39
2023/07/14 02:22:27;;;;;;;2.10;1.40;;;;;;;17.64;69.42;98037.81;6177692;28;20263;-39
2023/07/14 02:25:41;;;;;;;2.73;1.60;;;;;;;17.48;70.43;98039.78;6177763;28;20261;-39
2023/07/14 02:28:43;;;;;;;3.37;1.77;;;;;;;17.39;70.76;98043.31;6181573;28;20379;-39
2023/07/14 02:31:56;;;;;;;3.13;1.63;;;;;;;17.34;71.23;98048.72;6198923;28;20653;-39
2023/07/14 02:35:10;;;;;;;1.80;1.70;;;;;;;17.22;71.66;98047.16;6195071;28;20320;-38
2023/07/14 02:38:15;;;;;;;3.67;2.03;;;;;;;17.10;72.57;98052.09;6176011;28;20244;-39
2023/07/14 02:41:34;;;;;;;2.30;2.10;;;;;;;16.97;72.55;98044.59;6177528;28;20221;-39
2023/07/14 02:44:37;;;;;;;1.90;1.77;;;;;;;16.95;72.95;98049.44;6177998;28;20229;-39
2023/07/14 02:47:40;;;;;;;2.03;1.70;;;;;;;16.84;73.17;98045.94;6196682;28;20244;-38
2023/07/14 02:50:43;;;;;;;2.23;1.93;;;;;;;16.79;73.62;98056.72;6193585;28;20810;-38
2023/07/14 02:53:45;;;;;;;3.53;1.43;;;;;;;16.81;73.82;98059.16;6194828;28;20240;-38
2023/07/14 02:56:47;;;;;;;3.10;2.20;;;;;;;16.80;74.01;98044.91;6174366;28;20248;-38
2023/07/14 02:59:50;;;;;;;5.87;2.23;;;;;;;16.74;75.24;98049.47;6195734;28;20232;-39
2023/07/14 03:02:52;;;;;;;2.30;1.77;;;;;;;16.81;73.78;98049.19;6196043;28;20232;-38
2023/07/14 03:05:54;;;;;;;1.60;1.50;;;;;;;16.76;74.23;98050.03;6179967;28;20264;-39
2023/07/14 03:08:57;;;;;;;2.17;1.50;;;;;;;16.79;73.82;98054.03;6176118;28;20320;-38
2023/07/14 03:12:00;;;;;;;3.50;1.80;;;;;;;16.83;73.34;98057.00;6194046;28;20248;-38
2023/07/14 03:15:04;;;;;;;2.63;1.73;;;;;;;16.87;73.18;98050.00;6195335;28;20316;-39
2023/07/14 03:18:06;;;;;;;2.87;1.63;;;;;;;16.91;72.73;98056.44;6193845;28;20957;-39
2023/07/14 03:21:09;;;;;;;1.90;1.60;;;;;;;16.93;73.01;98067.72;6197903;28;20584;-38
2023/07/14 03:24:11;;;;;;;3.43;2.03;;;;;;;16.95;73.64;98068.28;6195215;28;20302;-39
2023/07/14 03:27:13;;;;;;;2.53;1.97;;;;;;;16.96;72.92;98072.56;6189811;28;20224;-38
2023/07/14 03:30:15;;;;;;;2.10;1.70;;;;;;;17.08;70.63;98075.75;6196326;28;20220;-38
2023/07/14 03:33:18;;;;;;;3.30;1.87;;;;;;;17.26;70.65;98052.81;6172239;28;20974;-38
2023/07/14 03:36:20;;;;;;;4.23;1.83;;;;;;;17.42;69.73;98070.50;6195173;28;20576;-38
2023/07/14 03:39:27;;;;;;;2.50;1.67;;;;;;;17.46;70.94;98073.47;6192401;28;20810;-38
2023/07/14 03:42:29;;;;;;;2.87;1.80;;;;;;;17.50;69.69;98071.84;6193325;28;20573;-38
2023/07/14 03:45:33;;;;;;;2.67;1.80;;;;;;;17.68;68.61;98068.50;6193984;28;20244;-38
2023/07/14 03:48:35;;;;;;;3.40;1.77;;;;;;;17.48;68.90;98047.06;6191771;28;20722;-39
2023/07/14 03:51:37;;;;;;;3.67;1.63;;;;;;;17.70;68.91;98076.31;6192737;28;20235;-39
2023/07/14 03:54:39;;;;;;;3.17;1.60;;;;;;;17.75;68.11;98079.81;6181228;28;20225;-39
2023/07/14 03:57:42;;;;;;;5.27;1.70;;;;;;;17.91;66.26;98060.84;6179109;28;20709;-38
2023/07/14 04:01:03;;;;;;;2.97;2.13;;;;;;;18.12;65.33;98080.38;6194039;28;20229;-39
2023/07/14 04:04:07;;;;;;;3.13;1.70;;;;;;;18.05;65.21;98062.63;6193830;28;20235;-39
2023/07/14 04:07:09;;;;;;;2.17;1.60;;;;;;;18.09;67.06;98079.06;6193833;28;20296;-39
2023/07/14 04:10:12;;;;;;;2.20;1.60;;;;;;;17.90;68.03;98067.34;6193136;28;20236;-39
2023/07/14 04:13:16;;;;;;;2.23;1.70;;;;;;;17.86;69.39;98079.75;6177700;28;20288;-39
2023/07/14 04:16:23;;;;;;;1.77;1.50;;;;;;;17.77;69.54;98071.44;6173348;28;20229;-39
2023/07/14 04:19:26;;;;;;;2.17;1.60;;;;;;;17.70;70.14;98084.41;6194497;28;20321;-38
2023/07/14 04:22:28;;;;;;;2.87;1.80;;;;;;;17.66;70.41;98088.72;6191776;28;20332;-39
2023/07/14 04:25:34;;;;;;;2.53;1.87;;;;;;;17.59;70.45;98086.34;6194222;28;20240;-39
2023/07/14 04:28:37;;;;;;;6.07;2.00;;;;;;;17.83;68.01;98075.72;6193926;28;20232;-39
2023/07/14 04:31:39;;;;;;;1.90;1.40;;;;;;;17.81;69.68;98080.59;6191100;28;20741;-39
2023/07/14 04:34:42;;;;;;;3.00;1.80;;;;;;;17.67;70.91;98083.06;6195201;28;20725;-39
2023/07/14 04:37:44;;;;;;;2.03;1.60;;;;;;;17.66;71.40;98089.53;6192698;28;20803;-39
2023/07/14 04:40:47;;;;;;;2.63;1.90;;;;;;;17.60;71.65;98089.84;6192732;28;20773;-39
2023/07/14 04:43:49;;;;;;;2.13;1.80;;;;;;;17.52;71.99;98091.22;6188554;28;20241;-39
2023/07/14 04:46:51;;;;;;;2.00;1.57;;;;;;;17.48;72.39;98093.66;6194854;28;20232;-39
2023/07/14 04:49:54;;;;;;;2.50;1.67;;;;;;;17.47;72.63;98083.97;6190417;28;20236;-39
2023/07/14 04:52:56;;;;;;;2.50;1.70;;;;;;;17.38;72.93;98085.59;6191782;28;20239;-39
2023/07/14 04:55:59;;;;;;;2.97;1.80;;;;;;;17.42;73.14;98097.44;6192388;28;20254;-39
2023/07/14 04:59:01;;;;;;;3.30;1.77;;;;;;;17.41;73.46;98085.06;6195340;28;20390;-38
2023/07/14 05:02:05;;;;;;;3.20;1.83;;;;;;;17.43;74.38;98090.16;6191293;28;20232;-38
2023/07/14 05:05:12;;;;;;;2.13;1.33;;;;;;;17.46;73.62;98095.03;6191932;28;20239;-39
2023/07/14 05:08:14;;;;;;;4.97;1.97;;;;;;;17.63;72.95;98095.47;6194863;28;20675;-39
2023/07/14 05:11:17;;;;;;;2.50;1.87;;;;;;;17.57;74.19;98093.09;6194730;28;20259;-38
2023/07/14 05:14:19;;;;;;;1.47;1.37;;;;;;;17.53;73.71;98095.50;6192713;28;20407;-39
2023/07/14 05:17:21;;;;;;;3.77;1.57;;;;;;;17.56;73.59;98103.06;6172633;28;20240;-39
2023/07/14 05:20:24;;;;;;;3.20;1.60;;;;;;;17.84;69.93;98106.19;6192174;28;20232;-39
2023/07/14 05:23:27;;;;;;;3.43;2.20;;;;;;;17.91;70.77;98103.97;6190285;28;20235;-39
2023/07/14 05:26:29;;;;;;;2.30;1.60;;;;;;;17.93;70.68;98101.78;6184571;28;20213;-39
2023/07/14 05:29:31;;;;;;;2.37;1.90;;;;;;;18.27;68.81;98104.53;6193444;28;20262;-39
2023/07/14 05:32:34;;;;;;;2.70;1.80;;;;;;;18.25;69.94;98115.63;6190615;28;20243;-39
2023/07/14 05:35:36;;;;;;;2.20;1.57;;;;;;;18.38;67.33;98108.78;6189378;28;20279;-39
2023/07/14 05:38:38;;;;;;;2.23;1.80;;;;;;;18.66;65.27;98109.09;6191883;28;20578;-39
2023/07/14 05:41:40;;;;;;;3.97;1.80;;;;;;;18.71;66.11;98107.16;6189131;28;20240;-39
2023/07/14 05:44:42;;;;;;;2.20;1.53;;;;;;;18.71;69.41;98092.88;6171817;28;20603;-39
2023/07/14 05:47:46;;;;;;;4.23;2.10;;;;;;;18.63;69.50;98099.69;6192141;28;20372;-38
2023/07/14 05:50:48;;;;;;;4.50;1.73;;;;;;;18.63;68.76;98096.97;6189609;28;20221;-39
2023/07/14 05:53:51;;;;;;;1.73;1.60;;;;;;;18.62;68.62;98092.66;6190210;28;20237;-39
2023/07/14 05:56:53;;;;;;;1.63;1.43;;;;;;;18.62;68.89;98089.97;6192664;28;20223;-39
2023/07/14 05:59:55;;;;;;;5.20;2.20;;;;;;;18.66;68.41;98087.50;6194040;28;20702;-39
2023/07/14 06:02:58;;;;;;;3.20;1.70;;;;;;;18.68;68.75;98096.97;6189615;28;20236;-40
2023/07/14 06:06:05;;;;;;;1.73;1.60;;;;;;;18.67;69.48;98099.88;6191327;28;20232;-39
2023/07/14 06:09:09;;;;;;;3.63;1.60;;;;;;;18.68;69.68;98096.13;6190081;28;20213;-40
2023/07/14 06:12:11;;;;;;;3.90;1.60;;;;;;;18.70;70.09;98093.97;6188492;28;20300;-41
2023/07/14 06:15:15;;;;;;;2.57;1.53;;;;;;;18.77;70.42;98100.66;6174759;28;20328;-40
2023/07/14 06:18:17;;;;;;;6.73;1.80;;;;;;;18.80;70.02;98104.66;6190182;28;20229;-40
2023/07/14 06:21:20;;;;;;;3.50;1.77;;;;;;;18.80;66.36;98077.69;6190809;28;20225;-40
2023/07/14 06:24:24;;;;;;;2.30;1.50;;;;;;;19.09;66.18;98096.53;6189341;28;20307;-41
2023/07/14 06:27:26;;;;;;;2.37;1.27;;;;;;;19.20;67.01;98098.03;6191128;28;20299;-40
2023/07/14 06:30:28;;;;;;;3.70;1.60;;;;;;;19.48;59.79;98065.84;6194143;28;20220;-41
2023/07/14 06:33:31;;;;;;;3.57;1.70;;;;;;;19.80;60.37;98098.41;6189506;28;20231;-42
2023/07/14 06:36:33;;;;;;;2.83;1.37;;;;;;;19.97;59.55;98094.41;6187031;28;20737;-42
2023/07/14 06:39:37;;;;;;;3.67;1.30;;;;;;;20.09;59.91;98082.03;6192157;28;20227;-40
2023/07/14 06:42:39;;;;;;;1.90;1.50;;;;;;;20.19;62.99;98081.06;6188983;28;20229;-41
2023/07/14 06:45:47;;;;;;;1.70;1.47;;;;;;;20.19;59.38;98072.94;6192011;28;20235;-40
2023/07/14 06:48:49;;;;;;;3.43;1.30;;;;;;;20.33;57.40;98068.38;6190440;28;20237;-40
2023/07/14 06:51:52;;;;;;;2.23;1.30;;;;;;;20.61;55.29;98065.81;6188156;28;20719;-40
2023/07/14 06:54:54;;;;;;;3.37;1.47;;;;;;;20.93;53.71;98072.25;6194046;28;20241;-40
2023/07/14 06:57:56;;;;;;;3.87;1.70;;;;;;;21.16;52.69;98068.56;6198073;28;20252;-41
2023/07/14 07:00:58;;;;;;;2.00;1.57;;;;;;;21.26;52.77;98081.13;6199164;28;20240;-41
2023/07/14 07:04:01;;;;;;;2.70;1.67;;;;;;;21.32;50.12;98072.59;6190413;28;20240;-42
2023/07/14 07:07:04;;;;;;;3.70;1.60;;;;;;;21.36;53.67;98068.19;6175400;28;20607;-41
2023/07/14 07:10:07;;;;;;;3.00;1.47;;;;;;;21.38;52.83;98068.72;6193087;28;20241;-40
2023/07/14 07:13:11;;;;;;;1.63;1.20;;;;;;;21.38;53.76;98073.31;6192505;28;20706;-40
2023/07/14 07:16:15;;;;;;;1.73;1.53;;;;;;;21.32;52.73;98052.84;6196111;28;20710;-40
2023/07/14 07:19:17;;;;;;;2.80;1.43;;;;;;;21.46;57.15;98074.50;6197520;28;20237;-41
2023/07/14 07:22:19;;;;;;;3.47;1.90;;;;;;;21.56;55.51;98079.72;6196663;28;20237;-40
2023/07/14 07:25:23;;;;;;;4.47;1.50;;;;;;;21.77;51.16;98080.06;6193169;28;20319;-40
2023/07/14 07:28:25;;;;;;;2.53;1.60;;;;;;;21.92;51.86;98084.34;6195075;28;20240;-39
2023/07/14 07:31:28;;;;;;;3.07;1.40;;;;;;;22.04;49.10;98077.28;6198098;28;20228;-40
2023/07/14 07:34:36;;;;;;;1.80;1.43;;;;;;;22.18;50.59;98084.63;6194574;28;20856;-41
2023/07/14 07:37:39;;;;;;;1.73;1.30;;;;;;;22.19;47.66;98080.78;6195782;28;20732;-41
2023/07/14 07:40:45;;;;;;;2.80;1.40;;;;;;;22.01;48.05;98060.81;6180600;28;20290;-38
2023/07/14 07:43:48;;;;;;;5.00;1.30;;;;;;;22.29;46.03;98084.06;6193912;28;20247;-41
2023/07/14 07:46:51;;;;;;;2.27;1.40;;;;;;;22.50;46.63;98089.00;6195289;28;20252;-40
2023/07/14 07:49:53;;;;;;;3.47;1.47;;;;;;;22.49;48.65;98093.63;6191114;28;20244;-43
2023/07/14 07:52:55;;;;;;;3.37;1.07;;;;;;;22.45;49.98;98084.50;6191597;28;20370;-39
2023/07/14 07:55:59;;;;;;;2.37;1.27;;;;;;;22.50;47.96;98083.56;6196807;28;20232;-38
2023/07/14 07:59:02;;;;;;;3.83;1.40;;;;;;;22.52;50.69;98089.50;6179367;28;20235;-42
2023/07/14 08:02:08;;;;;;;2.97;1.50;;;;;;;22.37;52.18;98067.03;6194263;28;20394;-42
2023/07/14 08:05:14;;;;;;;3.43;1.30;;;;;;;22.45;49.42;98065.47;6171604;28;20232;-41
2023/07/14 08:08:19;;;;;;;3.58;1.58;;;;;;;22.70;43.16;98085.75;6195350;28;20220;-39
2023/07/14 08:11:22;;;;;;;2.83;1.40;;;;;;;22.94;43.52;98081.94;6193359;28;20602;-40
2023/07/14 08:14:24;;;;;;;2.23;1.30;;;;;;;22.86;46.18;98078.03;6195757;28;20319;-41
2023/07/14 08:17:29;;;;;;;1.73;1.20;;;;;;;22.88;43.50;98079.34;6192669;28;20236;-40
2023/07/14 08:20:33;;;;;;;3.13;1.43;;;;;;;23.04;42.83;98082.44;6177408;28;20233;-40
2023/07/14 08:23:37;;;;;;;1.50;1.35;;;;;;;23.17;43.55;98076.13;6191328;28;20232;-42
2023/07/14 08:26:40;;;;;;;2.67;1.27;;;;;;;23.20;45.00;98071.16;6197885;28;20243;-39
2023/07/14 08:29:42;;;;;;;2.13;1.33;;;;;;;23.39;43.20;98077.94;6198250;28;20366;-41
2023/07/14 08:32:56;;;;;;;3.25;1.30;;;;;;;23.41;43.97;98062.13;6196149;28;20240;-39
2023/07/14 08:36:07;;;;;;;2.30;1.20;;;;;;;23.51;40.41;98065.66;6179153;28;20319;-40
2023/07/14 08:39:23;;;;;;;1.98;1.33;;;;;;;23.42;42.30;98069.16;6182593;28;20252;-40
2023/07/14 08:43:21;;;;;;;2.40;1.20;;;;;;;23.47;40.41;98059.25;6194749;28;20228;-40
2023/07/14 08:47:36;;;;;;;2.92;1.27;;;;;;;23.61;43.74;98058.00;6195763;28;20229;-40
2023/07/14 08:50:48;;;;;;;3.35;1.10;;;;;;;23.61;36.42;98049.84;6192656;28;20779;-40
2023/07/14 08:54:09;;;;;;;2.00;1.33;;;;;;;23.67;37.69;98059.47;6178690;28;20232;-42
2023/07/14 08:57:22;;;;;;;1.70;1.13;;;;;;;23.62;40.80;98050.63;6194509;28;20229;-40
2023/07/14 09:00:38;;;;;;;4.50;1.67;;;;;;;23.72;38.94;98057.72;6192900;28;20229;-40
2023/07/14 09:03:53;;;;;;;1.30;1.02;;;;;;;23.79;40.43;98049.88;6190023;28;20232;-41
2023/07/14 09:06:57;;;;;;;2.53;1.35;;;;;;;23.82;43.20;98043.81;6177972;28;20260;-40
2023/07/14 09:10:02;;;;;;;2.50;1.17;;;;;;;23.81;42.70;98043.00;6174932;28;20229;-41
2023/07/14 09:13:20;;;;;;;2.60;1.13;;;;;;;23.86;41.53;98042.06;6182309;28;20272;-42
2023/07/14 09:16:26;;;;;;;3.70;1.30;;;;;;;23.87;39.53;98044.44;6178892;28;20238;-43
2023/07/14 09:19:53;;;;;;;4.35;1.33;;;;;;;23.94;39.97;98044.00;6190331;28;20767;-59
2023/07/14 09:23:08;;;;;;;1.50;1.10;;;;;;;24.05;40.58;98047.97;6194256;28;20618;-58
2023/07/14 09:26:13;;;;;;;2.17;1.45;;;;;;;24.14;38.37;98039.81;6189915;28;20722;-58
2023/07/14 09:29:41;;;;;;;2.50;1.30;;;;;;;24.13;36.72;98036.25;6190949;28;21099;-58
2023/07/14 09:32:54;;;;;;;2.22;1.35;;;;;;;24.17;37.42;98039.16;6194019;28;20235;-58
2023/07/14 09:35:57;;;;;;;1.90;1.30;;;;;;;24.25;37.24;98038.34;6190667;28;20233;-59
2023/07/14 09:39:04;;;;;;;2.63;1.10;;;;;;;24.31;33.02;98026.16;6194396;28;21336;-58
2023/07/14 09:42:32;;;;;;;1.20;1.10;;;;;;;24.43;36.42;98030.97;6175045;28;20769;-58
2023/07/14 09:45:38;;;;;;;2.13;1.30;;;;;;;24.39;41.41;98030.84;6169121;28;20228;-58
2023/07/14 09:48:44;;;;;;;1.27;0.95;;;;;;;24.38;40.92;98031.13;6192033;28;20243;-57
2023/07/14 09:52:08;;;;;;;1.65;1.00;;;;;;;24.53;32.22;98027.09;6187533;28;20228;-58
2023/07/14 09:55:13;;;;;;;5.18;1.30;;;;;;;24.44;30.95;98021.69;6176759;28;20700;-58
2023/07/14 09:58:17;;;;;;;4.18;1.05;;;;;;;24.64;32.54;98031.91;6189413;28;20244;-55
2023/07/14 10:01:19;;;;;;;2.15;1.30;;;;;;;24.67;32.66;98041.31;6191416;28;20242;-58
2023/07/14 10:04:30;;;;;;;1.52;1.30;;;;;;;24.70;35.71;98030.59;6188807;28;20323;-60
2023/07/14 10:07:41;;;;;;;1.63;1.10;;;;;;;24.72;36.40;98030.25;6188252;28;20848;-58
2023/07/14 10:10:44;;;;;;;1.58;1.20;;;;;;;24.77;33.37;98030.06;6192601;28;20243;-58
2023/07/14 10:14:15;;;;;;;1.77;1.17;;;;;;;24.82;31.03;98026.38;6191506;28;20243;-58
2023/07/14 10:17:25;;;;;;;1.77;1.23;;;;;;;24.81;38.16;98028.31;6196705;28;20239;-54
2023/07/14 10:20:28;;;;;;;2.97;1.38;;;;;;;24.84;33.52;98014.03;6187721;28;20244;-58
2023/07/14 10:23:30;;;;;;;3.13;1.23;;;;;;;24.76;39.61;98009.41;6191888;28;20706;-58
2023/07/14 10:26:36;;;;;;;2.03;1.27;;;;;;;24.80;41.39;98004.09;6187251;28;20232;-58
2023/07/14 10:32:59;;;;;;;1.35;1.10;;;;;;;23.76;40.19;97854.66;6278355;28;20898;-90
2023/07/14 10:36:17;;;;;;;4.50;1.33;;;;;;;23.50;40.80;97803.00;6269014;28;20234;-93
2023/07/14 10:39:35;;;;;;;2.97;1.25;;;;;;;24.79;34.51;97978.78;6283947;28;20239;-91
2023/07/14 10:42:58;;;;;;;1.20;1.10;;;;;;;24.61;34.01;97941.84;6270200;28;20238;-92
2023/07/14 10:46:06;;;;;;;1.25;0.93;;;;;;;24.64;39.98;97930.31;6258369;28;20223;-92
2023/07/14 10:49:48;;;;;;;1.80;1.13;;;;;;;23.91;34.63;97830.44;6284990;28;20234;-92
2023/07/14 10:53:03;;;;;;;2.25;1.35;;;;;;;24.33;34.68;97879.59;6275011;28;20246;-90
2023/07/14 10:56:42;;;;;;;1.45;1.23;;;;;;;24.92;32.98;97931.41;6283991;28;20223;-92
2023/07/14 10:59:53;;;;;;;3.15;1.20;;;;;;;23.50;32.38;97700.47;6227904;28;20223;-91
2023/07/14 11:03:18;;;;;;;2.55;1.15;;;;;;;25.23;33.70;97960.31;6221807;28;20204;-92
2023/07/14 11:06:37;;;;;;;1.48;1.17;;;;;;;24.06;31.20;97793.72;6234200;28;20247;-93
2023/07/14 11:09:46;;;;;;;3.47;1.45;;;;;;;24.53;32.14;97872.66;6215640;28;20232;-91
2023/07/14 11:13:06;;;;;;;2.72;1.52;;;;;;;25.04;30.80;97902.66;6186756;28;20221;-93
2023/07/14 11:16:18;;;;;;;1.75;1.30;;;;;;;25.33;31.51;97938.09;6202588;28;20243;-91
2023/07/14 11:19:44;;;;;;;1.48;1.15;;;;;;;25.52;32.02;97943.09;6207560;28;20237;-91
2023/07/14 11:22:50;;;;;;;3.30;1.38;;;;;;;25.15;35.11;97893.00;6182624;28;20781;-91
2023/07/14 11:26:32;;;;;;;2.95;1.50;;;;;;;25.51;36.40;97932.50;6199660;28;20304;-91
2023/07/14 11:29:42;;;;;;;2.20;1.30;;;;;;;25.47;34.77;97937.84;6205959;28;20216;-91
2023/07/14 11:32:53;;;;;;;3.40;1.70;;;;;;;25.22;31.15;97920.50;6212018;28;20478;-91
2023/07/14 11:36:03;;;;;;;1.40;1.10;;;;;;;24.44;30.90;97809.28;6261543;28;20233;-91
2023/07/14 11:39:39;;;;;;;2.55;1.63;;;;;;;23.44;30.66;97641.94;6281558;28;20250;-90
2023/07/14 11:42:50;;;;;;;3.10;1.10;;;;;;;25.57;29.98;97920.28;6282397;28;20224;-91
2023/07/14 11:46:02;;;;;;;3.80;1.25;;;;;;;24.27;33.74;97693.03;6285817;28;20215;-91
2023/07/14 11:49:24;;;;;;;2.40;1.17;;;;;;;24.15;29.32;97652.16;6248386;28;20248;-91
2023/07/14 11:52:29;;;;;;;4.32;1.40;;;;;;;24.14;30.51;97642.41;6246968;28;20718;-91
2023/07/14 11:55:35;;;;;;;2.20;1.20;;;;;;;24.93;32.47;97755.09;6245572;28;20223;-92
2023/07/14 11:58:39;;;;;;;2.30;1.50;;;;;;;25.15;31.99;97771.09;6258528;28;20592;-91
2023/07/14 12:01:51;;;;;;;3.80;1.42;;;;;;;24.87;34.33;97724.47;6239152;28;20235;-92
2023/07/14 12:05:23;;;;;;;2.65;1.10;;;;;;;26.23;36.35;97893.75;6267103;22;20230;-58
2023/07/14 12:08:39;;;;;;;2.05;1.55;;;;;;;26.16;36.64;97865.44;6213484;28;20221;-58
2023/07/14 12:11:41;;;;;;;1.55;1.40;;;;;;;26.40;35.35;97878.28;6216923;28;20913;-58
2023/07/14 12:14:50;;;;;;;2.28;1.40;;;;;;;26.44;35.81;97866.38;6221610;28;20286;-58
2023/07/14 12:17:52;;;;;;;3.13;1.60;;;;;;;26.40;32.53;97875.56;6212958;28;20242;-59
2023/07/14 12:21:16;;;;;;;2.40;1.70;;;;;;;26.44;33.73;97871.03;6218022;28;20233;-59
2023/07/14 12:24:22;;;;;;;3.17;1.35;;;;;;;26.45;34.24;97878.91;6219679;28;20232;-58
2023/07/14 12:27:27;;;;;;;3.67;1.70;;;;;;;26.46;33.48;97869.56;6215431;28;20228;-58
2023/07/14 12:30:31;;;;;;;4.03;1.90;;;;;;;26.60;31.92;97865.69;6211948;28;20228;-58
2023/07/14 12:33:36;;;;;;;2.35;1.50;;;;;;;26.77;32.44;97868.19;6216923;28;20759;-58
2023/07/14 12:36:41;;;;;;;2.00;1.52;;;;;;;26.75;34.61;97846.69;6222300;28;20231;-58
2023/07/14 12:39:50;;;;;;;2.33;1.55;;;;;;;26.69;33.59;97856.22;6216469;28;20259;-57
2023/07/14 12:42:52;;;;;;;3.78;1.50;;;;;;;26.76;32.45;97858.41;6212512;28;20705;-58
2023/07/14 12:45:56;;;;;;;3.53;1.92;;;;;;;26.47;30.37;97808.31;6217033;28;20239;-58
2023/07/14 12:49:13;;;;;;;2.25;1.45;;;;;;;26.65;31.45;97838.13;6214309;28;20654;-58
2023/07/14 12:52:25;;;;;;;2.35;1.40;;;;;;;26.68;34.05;97848.38;6217538;28;20235;-58
2023/07/14 12:55:30;;;;;;;1.38;1.27;;;;;;;26.58;32.33;97843.38;6214525;28;20323;-58
2023/07/14 12:58:33;;;;;;;4.63;1.77;;;;;;;26.58;31.20;97841.44;6215401;28;20224;-58
2023/07/14 13:01:35;;;;;;;1.65;1.30;;;;;;;26.43;35.95;97834.72;6217981;28;20228;-58
2023/07/14 13:04:39;;;;;;;2.40;1.40;;;;;;;26.38;31.92;97837.66;6216788;28;20242;-58
2023/07/14 13:07:46;;;;;;;1.48;1.35;;;;;;;26.35;32.63;97843.78;6239231;28;20297;-58
2023/07/14 13:10:49;;;;;;;2.42;1.80;;;;;;;26.52;30.49;97842.81;6237322;28;20315;-57
2023/07/14 13:13:57;;;;;;;2.30;1.50;;;;;;;26.43;32.09;97823.81;6235596;28;20578;-58
2023/07/14 13:16:59;;;;;;;2.05;1.60;;;;;;;26.36;31.46;97806.38;6239219;28;20235;-58
2023/07/14 13:20:23;;;;;;;4.03;1.40;;;;;;;26.37;33.37;97830.59;6239512;28;20675;-58
2023/07/14 13:23:28;;;;;;;2.40;1.45;;;;;;;26.21;34.18;97818.78;6235773;28;20258;-58
2023/07/14 13:26:46;;;;;;;2.85;1.35;;;;;;;26.26;32.88;97820.50;6234499;28;20236;-58
2023/07/14 13:30:00;;;;;;;1.88;1.23;;;;;;;26.29;33.99;97815.13;6232581;28;20709;-58
2023/07/14 13:33:03;;;;;;;1.52;1.42;;;;;;;26.22;37.10;97820.38;6231673;28;20231;-57
2023/07/14 13:36:08;;;;;;;2.10;1.38;;;;;;;26.21;36.83;97816.06;6241512;28;20218;-57
2023/07/14 13:39:24;;;;;;;1.85;1.30;;;;;;;26.27;37.94;97811.94;6240277;28;20261;-57
2023/07/14 13:42:45;;;;;;;3.50;1.48;;;;;;;26.28;37.32;97810.81;6236466;28;20247;-41
2023/07/14 13:45:59;;;;;;;2.67;1.52;;;;;;;26.21;37.79;97802.41;6235210;28;20235;-45
2023/07/14 13:49:06;;;;;;;1.88;1.60;;;;;;;26.05;37.00;97802.25;6240086;28;20228;-40
2023/07/14 13:52:17;;;;;;;3.25;1.30;;;;;;;25.91;36.23;97788.13;6221483;28;21191;-41
2023/07/14 13:55:25;;;;;;;1.90;1.30;;;;;;;25.75;36.79;97774.34;6237375;28;20273;-41
2023/07/14 13:58:28;;;;;;;2.25;1.50;;;;;;;25.82;37.92;97793.72;6236889;28;20242;-41
2023/07/14 14:01:30;;;;;;;1.65;1.20;;;;;;;25.91;34.77;97793.59;6237752;28;20227;-41
2023/07/14 14:04:32;;;;;;;1.50;1.13;;;;;;;25.95;38.95;97789.03;6241194;28;20235;-42
2023/07/14 14:07:34;;;;;;;4.25;1.67;;;;;;;25.93;39.97;97791.34;6245231;28;20211;-41
2023/07/14 14:10:37;;;;;;;1.88;1.40;;;;;;;25.77;37.38;97788.47;6242637;28;20762;-41
2023/07/14 14:13:39;;;;;;;2.05;1.35;;;;;;;25.72;38.29;97773.09;6245156;28;20317;-41
2023/07/14 14:16:43;;;;;;;2.60;1.55;;;;;;;25.83;35.47;97778.13;6247203;28;20738;-42
2023/07/14 14:19:45;;;;;;;2.22;1.20;;;;;;;25.94;34.91;97777.34;6244431;28;20237;-40
2023/07/14 14:22:47;;;;;;;3.75;1.70;;;;;;;26.06;35.93;97771.09;6244592;28;20239;-41
2023/07/14 14:25:50;;;;;;;3.45;1.83;;;;;;;26.02;35.84;97762.00;6245842;28;20223;-41
2023/07/14 14:28:52;;;;;;;1.88;1.33;;;;;;;25.96;37.01;97763.34;6242535;28;20378;-42
2023/07/14 14:31:54;;;;;;;4.00;1.50;;;;;;;25.91;36.09;97749.91;6244546;28;20230;-41
2023/07/14 14:34:58;;;;;;;3.60;1.42;;;;;;;25.99;38.82;97749.81;6239386;28;20731;-41
2023/07/14 14:38:10;;;;;;;3.85;1.70;;;;;;;25.96;38.88;97750.50;6244430;28;20257;-40
2023/07/14 14:41:29;;;;;;;2.45;1.65;;;;;;;26.01;35.10;97732.28;6242383;28;20220;-41
2023/07/14 14:44:31;;;;;;;1.95;1.77;;;;;;;26.07;35.68;97752.78;6232503;28;20234;-41
2023/07/14 14:47:33;;;;;;;2.13;1.38;;;;;;;26.03;38.25;97740.94;6243780;28;20239;-42